createdAt,value
2022-08-05T00:02:27.698Z,93319.41
2022-08-05T00:04:56.196Z,93312.44
2022-08-05T00:07:59.299Z,93294.28
2022-08-05T00:10:10.813Z,93315.94
2022-08-05T00:12:55.652Z,93311.00
2022-08-05T00:15:54.947Z,93301.22
2022-08-05T00:18:21.425Z,93302.53
2022-08-05T00:20:50.843Z,93316.91
2022-08-05T00:23:44.574Z,93312.47
2022-08-05T00:26:05.533Z,93318.53
2022-08-05T00:28:32.924Z,93330.66
2022-08-05T00:31:02.845Z,93337.22
2022-08-05T00:34:53.876Z,93317.97
2022-08-05T00:37:20.097Z,93333.91
2022-08-05T00:39:07.508Z,93332.53
2022-08-05T00:41:52.128Z,93331.25
2022-08-05T00:44:30.880Z,93357.38
2022-08-05T00:47:01.955Z,93345.03
2022-08-05T00:49:44.790Z,93351.94
2022-08-05T00:52:28.091Z,93337.66
2022-08-05T00:54:55.192Z,93332.41
2022-08-05T00:57:25.274Z,93344.47
2022-08-05T00:59:58.496Z,93332.41
2022-08-05T01:02:25.156Z,93347.91
2022-08-05T01:04:51.757Z,93343.09
2022-08-05T01:07:18.520Z,93335.28
2022-08-05T01:09:45.648Z,93336.88
2022-08-05T01:12:24.837Z,93336.88
2022-08-05T01:15:35.584Z,93333.41
2022-08-05T01:18:04.067Z,93329.59
2022-08-05T01:20:49.173Z,93322.88
2022-08-05T01:24:13.266Z,93285.88
2022-08-05T01:26:52.996Z,93315.59
2022-08-05T01:29:43.065Z,93326.53
2022-08-05T01:32:12.534Z,93308.03
2022-08-05T01:34:57.247Z,93305.34
2022-08-05T01:37:48.655Z,93313.72
2022-08-05T01:40:17.923Z,93311.22
2022-08-05T01:42:46.860Z,93314.06
2022-08-05T01:45:16.486Z,93312.94
2022-08-05T01:47:46.348Z,93313.91
2022-08-05T01:50:19.982Z,93331.03
2022-08-05T01:52:57.885Z,93320.25
2022-08-05T01:55:29.349Z,93326.09
2022-08-05T01:58:13.648Z,93325.88
2022-08-05T02:00:50.773Z,93327.09
2022-08-05T02:03:31.610Z,93328.47
2022-08-05T02:06:03.786Z,93327.50
2022-08-05T02:08:58.267Z,93325.44
2022-08-05T02:11:33.200Z,93313.16
2022-08-05T02:14:12.684Z,93323.69
2022-08-05T02:17:02.297Z,93321.94
2022-08-05T02:19:35.669Z,93315.22
2022-08-05T02:22:42.412Z,93312.38
2022-08-05T02:25:14.597Z,93293.03
2022-08-05T02:27:59.252Z,93319.09
2022-08-05T02:30:32.361Z,93306.28
2022-08-05T02:33:02.747Z,93309.44
2022-08-05T02:35:37.794Z,93308.28
2022-08-05T02:38:19.329Z,93310.22
2022-08-05T02:40:46.833Z,93303.41
2022-08-05T02:43:16.755Z,93240.63
2022-08-05T02:45:52.485Z,93314.50
2022-08-05T02:48:29.212Z,93317.25
2022-08-05T02:50:59.996Z,93310.53
2022-08-05T02:53:35.930Z,93293.44
2022-08-05T02:56:08.429Z,93311.09
2022-08-05T02:58:37.071Z,93298.09
2022-08-05T03:01:14.799Z,93303.47
2022-08-05T03:04:02.680Z,93308.75
2022-08-05T03:06:56.224Z,93304.91
2022-08-05T03:09:17.916Z,93302.06
2022-08-05T03:12:04.919Z,93297.47
2022-08-05T03:14:31.644Z,93303.84
2022-08-05T03:16:59.167Z,93301.81
2022-08-05T03:19:34.020Z,93289.13
2022-08-05T03:22:01.371Z,93300.06
2022-08-05T03:24:30.350Z,93292.19
2022-08-05T03:26:59.905Z,93289.75
2022-08-05T03:29:44.543Z,93295.06
2022-08-05T03:32:15.485Z,93302.19
2022-08-05T03:34:50.951Z,93290.56
2022-08-05T03:37:19.334Z,93286.59
2022-08-05T03:39:58.839Z,93290.09
2022-08-05T03:42:27.198Z,93288.16
2022-08-05T03:44:56.248Z,93293.47
2022-08-05T03:47:24.311Z,93279.56
2022-08-05T03:49:52.414Z,93275.88
2022-08-05T03:52:38.457Z,93286.97
2022-08-05T03:56:05.287Z,93280.91
2022-08-05T03:58:12.628Z,93283.53
2022-08-05T04:00:42.100Z,93282.34
2022-08-05T04:03:26.570Z,93283.88
2022-08-05T04:05:55.661Z,93279.22
2022-08-05T04:08:35.174Z,93273.69
2022-08-05T04:11:05.069Z,93271.34
2022-08-05T04:13:49.782Z,93270.59
2022-08-05T04:16:25.462Z,93282.13
2022-08-05T04:19:00.166Z,93277.31
2022-08-05T04:22:05.736Z,93276.28
2022-08-05T04:24:19.293Z,93278.22
2022-08-05T04:26:50.133Z,93274.84
2022-08-05T04:29:17.022Z,93275.25
2022-08-05T04:31:43.724Z,93284.97
2022-08-05T04:34:18.106Z,93284.97
2022-08-05T04:36:50.120Z,93288.22
2022-08-05T04:39:18.554Z,93289.97
2022-08-05T04:41:46.455Z,93285.41
2022-08-05T04:44:21.016Z,93291.28
2022-08-05T04:46:51.029Z,93297.22
2022-08-05T04:49:24.765Z,93279.38
2022-08-05T04:52:07.777Z,93299.38
2022-08-05T04:54:34.612Z,93300.81
2022-08-05T04:57:01.421Z,93303.44
2022-08-05T04:59:37.421Z,93290.06
2022-08-05T05:02:37.507Z,93290.78
2022-08-05T05:04:53.157Z,93296.44
2022-08-05T05:07:31.966Z,93299.63
2022-08-05T05:10:02.165Z,93300.16
2022-08-05T05:12:29.666Z,93310.91
2022-08-05T05:14:56.561Z,93305.66
2022-08-05T05:17:48.006Z,93316.56
2022-08-05T05:20:12.173Z,93324.59
2022-08-05T05:22:40.926Z,93313.94
2022-08-05T05:25:16.647Z,93313.72
2022-08-05T05:27:48.770Z,93313.63
2022-08-05T05:30:30.737Z,93304.34
2022-08-05T05:33:09.148Z,93305.19
2022-08-05T05:35:43.696Z,93311.88
2022-08-05T05:38:13.188Z,93310.59
2022-08-05T05:40:46.627Z,93314.66
2022-08-05T05:43:16.258Z,93314.41
2022-08-05T05:45:49.364Z,93315.44
2022-08-05T05:48:16.266Z,93314.66
2022-08-05T05:50:44.429Z,93324.31
2022-08-05T05:53:22.341Z,93319.09
2022-08-05T05:55:51.465Z,93311.56
2022-08-05T05:58:31.926Z,93312.91
2022-08-05T06:01:13.064Z,93315.84
2022-08-05T06:04:00.719Z,93318.00
2022-08-05T06:06:31.448Z,93319.06
2022-08-05T06:09:04.067Z,93328.81
2022-08-05T06:11:31.957Z,93316.41
2022-08-05T06:14:00.289Z,93315.81
2022-08-05T06:16:33.018Z,93317.16
2022-08-05T06:19:05.436Z,93332.88
2022-08-05T06:21:36.811Z,93323.16
2022-08-05T06:24:11.593Z,93324.22
2022-08-05T06:26:40.277Z,93322.84
2022-08-05T06:29:43.113Z,93314.47
2022-08-05T06:32:25.254Z,93322.25
2022-08-05T06:34:58.600Z,93328.28
2022-08-05T06:37:55.587Z,93329.53
2022-08-05T06:40:18.493Z,93330.34
2022-08-05T06:42:48.888Z,93324.69
2022-08-05T06:46:02.844Z,93335.19
2022-08-05T06:48:37.316Z,93320.22
2022-08-05T06:50:57.084Z,93324.75
2022-08-05T06:53:28.408Z,93330.53
2022-08-05T06:56:00.023Z,93327.34
2022-08-05T06:58:35.141Z,93332.56
2022-08-05T07:01:05.609Z,93325.06
2022-08-05T07:03:33.916Z,93338.66
2022-08-05T07:06:05.907Z,93348.72
2022-08-05T07:08:47.502Z,93350.28
2022-08-05T07:11:15.768Z,93362.78
2022-08-05T07:14:01.778Z,93369.81
2022-08-05T07:18:08.483Z,93354.97
2022-08-05T07:22:28.907Z,93372.53
2022-08-05T07:25:55.601Z,93387.00
2022-08-05T07:28:02.321Z,93382.97
2022-08-05T07:30:39.040Z,93384.06
2022-08-05T07:33:09.375Z,93381.78
2022-08-05T07:36:04.265Z,93384.06
2022-08-05T07:38:33.871Z,93375.69
2022-08-05T07:42:06.764Z,93381.00
2022-08-05T07:43:58.280Z,93387.31
2022-08-05T07:46:28.890Z,93389.34
2022-08-05T07:49:01.835Z,93394.53
2022-08-05T07:51:37.452Z,93386.31
2022-08-05T07:54:08.305Z,93384.47
2022-08-05T07:57:02.821Z,93383.44
2022-08-05T07:59:38.255Z,93387.38
2022-08-05T08:02:15.968Z,93379.50
2022-08-05T08:04:48.292Z,93386.38
2022-08-05T08:07:16.407Z,93393.50
2022-08-05T08:09:45.147Z,93388.50
2022-08-05T08:12:33.267Z,93397.19
2022-08-05T08:15:03.517Z,93394.44
2022-08-05T08:17:32.605Z,93387.81
2022-08-05T08:20:21.107Z,93371.47
2022-08-05T08:22:54.279Z,93388.53
2022-08-05T08:25:27.048Z,93383.75
2022-08-05T08:28:18.427Z,93382.25
2022-08-05T08:30:57.517Z,93377.91
2022-08-05T08:33:24.267Z,93383.84
2022-08-05T08:36:07.814Z,93373.50
2022-08-05T08:38:40.708Z,93371.97
2022-08-05T08:41:10.329Z,93380.47
2022-08-05T08:45:22.832Z,93384.53
2022-08-05T08:46:32.012Z,93384.88
2022-08-05T08:49:17.397Z,93370.31
2022-08-05T08:52:03.882Z,93372.25
2022-08-05T08:54:36.889Z,93371.44
2022-08-05T08:57:11.290Z,93381.72
2022-08-05T08:59:41.697Z,93367.81
2022-08-05T09:02:09.085Z,93374.47
2022-08-05T09:04:58.290Z,93373.66
2022-08-05T09:07:29.088Z,93373.56
2022-08-05T09:10:06.953Z,93367.81
2022-08-05T09:12:35.159Z,93375.28
2022-08-05T09:15:06.038Z,93366.41
2022-08-05T09:17:42.498Z,93369.22
2022-08-05T09:20:11.681Z,93375.06
2022-08-05T09:23:09.235Z,93374.78
2022-08-05T09:26:02.193Z,93373.56
2022-08-05T09:28:32.102Z,93379.50
2022-08-05T09:31:22.682Z,93376.91
2022-08-05T09:34:14.440Z,93375.28
2022-08-05T09:36:59.910Z,93380.72
2022-08-05T09:39:41.215Z,93373.84
2022-08-05T09:42:23.378Z,93377.81
2022-08-05T09:44:56.438Z,93373.44
2022-08-05T09:47:47.984Z,93367.69
2022-08-05T09:50:18.028Z,93374.88
2022-08-05T09:53:01.144Z,93362.72
2022-08-05T09:55:56.479Z,93361.66
2022-08-05T09:58:15.798Z,93364.78
2022-08-05T10:01:15.310Z,93366.22
2022-08-05T10:04:00.476Z,93372.25
2022-08-05T10:06:28.245Z,93353.44
2022-08-05T10:08:56.728Z,93361.63
2022-08-05T10:11:23.663Z,93350.69
2022-08-05T10:13:58.104Z,93361.56
2022-08-05T10:16:34.087Z,93355.44
2022-08-05T10:19:08.552Z,93369.81
2022-08-05T10:21:40.450Z,93354.91
2022-08-05T10:24:13.459Z,93355.47
2022-08-05T10:26:51.441Z,93349.88
2022-08-05T10:29:23.738Z,93342.59
2022-08-05T10:32:54.989Z,93352.06
2022-08-05T10:35:00.674Z,93338.91
2022-08-05T10:37:40.423Z,93345.84
2022-08-05T10:40:20.532Z,93347.34
2022-08-05T10:43:01.229Z,93329.09
2022-08-05T10:45:40.441Z,93340.59
2022-08-05T10:48:52.691Z,93329.72
2022-08-05T10:51:28.590Z,93318.53
2022-08-05T10:54:05.644Z,93327.88
2022-08-05T10:56:53.403Z,93331.09
2022-08-05T11:00:02.450Z,93326.16
2022-08-05T11:02:34.691Z,93326.00
2022-08-05T11:05:08.595Z,93322.97
2022-08-05T11:08:01.792Z,93320.94
2022-08-05T11:10:37.113Z,93290.91
2022-08-05T11:13:05.527Z,93326.59
2022-08-05T11:16:00.346Z,93317.78
2022-08-05T11:18:34.076Z,93319.91
2022-08-05T11:21:11.216Z,93311.16
2022-08-05T11:24:05.437Z,93310.81
2022-08-05T11:26:40.561Z,93308.03
2022-08-05T11:29:43.081Z,93310.56
2022-08-05T11:32:29.875Z,93309.94
2022-08-05T11:34:57.413Z,93306.53
2022-08-05T11:38:30.793Z,93303.91
2022-08-05T11:41:34.661Z,93304.31
2022-08-05T11:44:05.496Z,93300.53
2022-08-05T11:46:58.728Z,93291.41
2022-08-05T11:49:39.288Z,93293.06
2022-08-05T11:52:11.872Z,93289.19
2022-08-05T11:54:40.628Z,93286.47
2022-08-05T11:57:24.273Z,93284.19
2022-08-05T11:59:52.737Z,93281.16
2022-08-05T12:02:31.379Z,93284.34
2022-08-05T12:05:07.710Z,93279.81
2022-08-05T12:08:03.468Z,93269.03
2022-08-05T12:10:43.455Z,93266.53
2022-08-05T12:13:18.763Z,93264.03
2022-08-05T12:16:15.398Z,93269.72
2022-08-05T12:18:52.299Z,93271.63
2022-08-05T12:21:25.000Z,93275.94
2022-08-05T12:23:57.761Z,93244.88
2022-08-05T12:26:47.583Z,93268.25
2022-08-05T12:29:25.789Z,93264.50
2022-08-05T12:31:57.957Z,93253.53
2022-08-05T12:34:36.915Z,93256.28
2022-08-05T12:37:10.898Z,93253.75
2022-08-05T12:39:45.135Z,93254.09
2022-08-05T12:42:20.430Z,93254.97
2022-08-05T12:44:47.907Z,93253.47
2022-08-05T12:47:26.816Z,93237.75
2022-08-05T12:50:04.252Z,93253.00
2022-08-05T12:52:39.719Z,93246.38
2022-08-05T12:55:23.037Z,93244.13
2022-08-05T12:58:50.396Z,93248.72
2022-08-05T13:01:59.712Z,93241.16
2022-08-05T13:03:41.447Z,93244.75
2022-08-05T13:06:14.562Z,93241.28
2022-08-05T13:08:52.283Z,93224.78
2022-08-05T13:12:02.767Z,93220.53
2022-08-05T13:14:19.413Z,93229.13
2022-08-05T13:16:52.685Z,93220.19
2022-08-05T13:19:51.773Z,93227.31
2022-08-05T13:22:28.058Z,93218.91
2022-08-05T13:25:00.348Z,93234.09
2022-08-05T13:27:38.049Z,93230.09
2022-08-05T13:30:35.185Z,93224.38
2022-08-05T13:32:56.395Z,93217.44
2022-08-05T13:35:42.794Z,93222.03
2022-08-05T13:38:14.522Z,93202.41
2022-08-05T13:40:55.321Z,93209.91
2022-08-05T13:43:23.200Z,93201.50
2022-08-05T13:45:50.839Z,93196.22
2022-08-05T13:48:57.601Z,93221.41
2022-08-05T13:51:13.921Z,93198.16
2022-08-05T13:53:48.239Z,93207.41
2022-08-05T13:56:18.783Z,93208.63
2022-08-05T13:58:52.708Z,93208.81
2022-08-05T14:01:23.679Z,93204.81
2022-08-05T14:04:12.641Z,93213.72
2022-08-05T14:06:39.384Z,93198.06
2022-08-05T14:09:14.392Z,93198.22
2022-08-05T14:12:04.488Z,93198.69
2022-08-05T14:14:33.658Z,93198.06
2022-08-05T14:17:00.813Z,93197.50
2022-08-05T14:19:27.469Z,93201.03
2022-08-05T14:22:09.800Z,93189.13
2022-08-05T14:24:39.828Z,93194.16
2022-08-05T14:27:17.617Z,93182.50
2022-08-05T14:29:45.457Z,93178.63
2022-08-05T14:32:26.631Z,93199.19
2022-08-05T14:34:56.720Z,93171.56
2022-08-05T14:37:45.623Z,93173.19
2022-08-05T14:40:14.049Z,93179.16
2022-08-05T14:42:43.358Z,93159.38
2022-08-05T14:45:10.400Z,93180.28
2022-08-05T14:47:58.777Z,93173.22
2022-08-05T14:50:25.270Z,93173.94
2022-08-05T14:52:57.722Z,93174.28
2022-08-05T14:55:38.509Z,93172.97
2022-08-05T14:58:11.896Z,93174.38
2022-08-05T15:00:58.893Z,93166.63
2022-08-05T15:03:33.162Z,93168.75
2022-08-05T15:06:07.757Z,93178.69
2022-08-05T15:08:59.449Z,93163.69
2022-08-05T15:11:51.153Z,93164.97
2022-08-05T15:14:20.065Z,93162.75
2022-08-05T15:17:00.979Z,93153.25
2022-08-05T15:19:27.775Z,93157.38
2022-08-05T15:21:54.580Z,93155.25
2022-08-05T15:24:27.718Z,93147.00
2022-08-05T15:26:56.031Z,93159.84
2022-08-05T15:29:23.910Z,93162.91
2022-08-05T15:32:02.459Z,93151.44
2022-08-05T15:34:31.830Z,93168.53
2022-08-05T15:37:03.530Z,93139.41
2022-08-05T15:41:03.178Z,93145.56
2022-08-05T15:42:28.686Z,93144.22
2022-08-05T15:45:07.601Z,93158.06
2022-08-05T15:47:42.465Z,93155.06
2022-08-05T15:50:13.932Z,93158.16
2022-08-05T15:52:54.615Z,93156.56
2022-08-05T15:55:24.964Z,93161.41
2022-08-05T15:58:16.522Z,93160.78
2022-08-05T16:00:50.754Z,93144.41
2022-08-05T16:03:32.734Z,93141.44
2022-08-05T16:06:01.332Z,93127.81
2022-08-05T16:08:30.392Z,93153.41
2022-08-05T16:10:58.039Z,93156.19
2022-08-05T16:13:34.259Z,93160.09
2022-08-05T16:16:03.499Z,93160.53
2022-08-05T16:18:32.683Z,93164.06
2022-08-05T16:21:04.340Z,93170.03
2022-08-05T16:23:53.234Z,93169.25
2022-08-05T16:26:19.052Z,93151.28
2022-08-05T16:28:53.080Z,93153.81
2022-08-05T16:31:21.448Z,93143.91
2022-08-05T16:33:48.568Z,93139.97
2022-08-05T16:36:20.354Z,93156.41
2022-08-05T16:38:54.675Z,93165.84
2022-08-05T16:42:14.140Z,93202.47
2022-08-05T16:44:14.210Z,93208.75
2022-08-05T16:46:55.387Z,93238.75
2022-08-05T16:49:22.816Z,93287.19
2022-08-05T16:51:51.406Z,93324.72
2022-08-05T16:54:28.962Z,93375.25
2022-08-05T16:56:57.092Z,93409.22
2022-08-05T16:59:23.743Z,93426.16
2022-08-05T17:01:54.718Z,93426.50
2022-08-05T17:04:27.829Z,93399.44
2022-08-05T17:07:00.058Z,93370.63
2022-08-05T17:09:29.532Z,93380.94
2022-08-05T17:11:59.323Z,93374.59
2022-08-05T17:14:37.102Z,93381.63
2022-08-05T17:17:14.484Z,93409.63
2022-08-05T17:19:45.309Z,93418.94
2022-08-05T17:22:17.885Z,93440.59
2022-08-05T17:24:57.616Z,93452.88
2022-08-05T17:27:34.006Z,93492.72
2022-08-05T17:30:02.796Z,93495.28
2022-08-05T17:32:30.266Z,93480.84
2022-08-05T17:35:00.628Z,93490.91
2022-08-05T17:37:39.681Z,93530.91
2022-08-05T17:40:12.778Z,93556.28
2022-08-05T17:42:43.162Z,93562.34
2022-08-05T17:45:22.147Z,93559.19
2022-08-05T17:47:54.652Z,93544.94
2022-08-05T17:50:28.090Z,93545.31
2022-08-05T17:53:01.936Z,93533.53
2022-08-05T17:55:37.236Z,93517.59
2022-08-05T17:58:09.759Z,93526.28
2022-08-05T18:00:40.889Z,93533.88
2022-08-05T18:03:28.084Z,93529.69
2022-08-05T18:06:04.516Z,93584.06
2022-08-05T18:08:34.755Z,93647.88
2022-08-05T18:11:03.270Z,93683.97
2022-08-05T18:13:36.834Z,93673.19
2022-08-05T18:16:13.682Z,93653.81
2022-08-05T18:18:41.245Z,93580.31
2022-08-05T18:21:13.365Z,93518.03
2022-08-05T18:23:47.236Z,93494.66
2022-08-05T18:26:14.609Z,93538.66
2022-08-05T18:28:46.594Z,93556.25
2022-08-05T18:31:15.693Z,93589.28
2022-08-05T18:33:46.579Z,93606.38
2022-08-05T18:36:15.454Z,93598.69
2022-08-05T18:38:42.780Z,93614.38
2022-08-05T18:41:55.217Z,93623.41
2022-08-05T18:43:56.362Z,93573.38
2022-08-05T18:46:23.071Z,93564.69
2022-08-05T18:48:53.570Z,93562.38
2022-08-05T18:52:05.820Z,93545.50
2022-08-05T18:54:31.260Z,93572.38
2022-08-05T18:57:02.115Z,93581.44
2022-08-05T18:59:43.587Z,93590.34
2022-08-05T19:02:28.352Z,93620.50
2022-08-05T19:05:03.221Z,93642.94
2022-08-05T19:07:49.580Z,93649.88
2022-08-05T19:10:28.037Z,93634.88
2022-08-05T19:12:56.884Z,93618.00
2022-08-05T19:15:57.935Z,93585.44
2022-08-05T19:18:13.440Z,93570.63
2022-08-05T19:20:49.020Z,93613.41
2022-08-05T19:24:05.011Z,93632.91
2022-08-05T19:26:02.915Z,93612.91
2022-08-05T19:28:31.217Z,93659.56
2022-08-05T19:31:00.260Z,93673.16
2022-08-05T19:33:35.107Z,93680.31
2022-08-05T19:36:08.965Z,93691.84
2022-08-05T19:38:36.430Z,93708.63
2022-08-05T19:41:06.624Z,93727.75
2022-08-05T19:44:05.375Z,93729.03
2022-08-05T19:46:29.471Z,93742.56
2022-08-05T19:49:03.237Z,93767.06
2022-08-05T19:52:08.725Z,93782.22
2022-08-05T19:54:29.547Z,93780.31
2022-08-05T19:56:59.364Z,93758.97
2022-08-05T20:00:00.732Z,93750.16
2022-08-05T20:02:15.052Z,93742.69
2022-08-05T20:04:46.216Z,93725.66
2022-08-05T20:07:15.372Z,93710.53
2022-08-05T20:09:53.579Z,93690.53
2022-08-05T20:12:23.472Z,93722.31
2022-08-05T20:14:52.049Z,93735.25
2022-08-05T20:17:23.477Z,93746.53
2022-08-05T20:19:56.942Z,93745.38
2022-08-05T20:22:26.985Z,93738.47
2022-08-05T20:24:57.241Z,93764.78
2022-08-05T20:27:27.287Z,93778.34
2022-08-05T20:30:09.619Z,93761.63
2022-08-05T20:32:36.951Z,93789.19
2022-08-05T20:35:11.961Z,93784.28
2022-08-05T20:38:07.809Z,93785.34
2022-08-05T20:40:26.753Z,93768.81
2022-08-05T20:42:53.773Z,93757.38
2022-08-05T20:45:55.878Z,93748.78
2022-08-05T20:48:13.385Z,93741.66
2022-08-05T20:50:45.344Z,93730.34
2022-08-05T20:53:16.307Z,93757.63
2022-08-05T20:56:09.079Z,93774.84
2022-08-05T20:58:36.003Z,93771.16
2022-08-05T21:01:04.443Z,93745.06
2022-08-05T21:03:34.531Z,93757.84
2022-08-05T21:06:01.923Z,93747.94
2022-08-05T21:08:41.321Z,93747.56
2022-08-05T21:11:11.798Z,93753.44
2022-08-05T21:13:56.161Z,93757.38
2022-08-05T21:16:29.358Z,93771.25
2022-08-05T21:18:59.902Z,93771.84
2022-08-05T21:21:39.154Z,93760.31
2022-08-05T21:24:13.130Z,93763.69
2022-08-05T21:26:41.487Z,93770.31
2022-08-05T21:29:12.545Z,93779.06
2022-08-05T21:31:43.652Z,93760.19
2022-08-05T21:34:11.064Z,93763.94
2022-08-05T21:36:39.098Z,93771.50
2022-08-05T21:39:09.884Z,93749.59
2022-08-05T21:41:41.593Z,93762.16
2022-08-05T21:44:19.155Z,93771.47
2022-08-05T21:46:53.772Z,93772.06
2022-08-05T21:49:59.476Z,93768.47
2022-08-05T21:52:16.677Z,93765.78
2022-08-05T21:54:51.243Z,93768.94
2022-08-05T21:57:31.712Z,93778.13
2022-08-05T22:00:06.251Z,93767.50
2022-08-05T22:02:33.662Z,93774.38
2022-08-05T22:05:00.456Z,93795.91
2022-08-05T22:07:54.251Z,93819.34
2022-08-05T22:10:17.035Z,93828.69
2022-08-05T22:12:45.131Z,93816.84
2022-08-05T22:16:01.781Z,93828.16
2022-08-05T22:18:06.124Z,93838.06
2022-08-05T22:20:35.590Z,93851.63
2022-08-05T22:23:24.741Z,93849.44
2022-08-05T22:26:30.195Z,93845.34
2022-08-05T22:28:56.960Z,93858.75
2022-08-05T22:31:30.141Z,93855.00
2022-08-05T22:34:01.302Z,93864.78
2022-08-05T22:36:28.621Z,93853.25
2022-08-05T22:38:56.255Z,93850.69
2022-08-05T22:41:26.280Z,93851.25
2022-08-05T22:44:11.973Z,93834.63
2022-08-05T22:46:40.787Z,93827.19
2022-08-05T22:49:12.184Z,93827.84
2022-08-05T22:52:05.350Z,93806.88
2022-08-05T22:54:35.585Z,93795.69
2022-08-05T22:57:03.901Z,93796.53
2022-08-05T22:59:45.161Z,93787.78
2022-08-05T23:02:16.953Z,93766.13
2022-08-05T23:04:52.131Z,93792.59
2022-08-05T23:07:21.854Z,93807.47
2022-08-05T23:09:57.095Z,93826.66
2022-08-05T23:12:25.473Z,93810.53
2022-08-05T23:14:55.339Z,93813.44
2022-08-05T23:17:34.480Z,93820.22
2022-08-05T23:20:16.385Z,93815.31
2022-08-05T23:22:48.362Z,93810.19
2022-08-05T23:25:51.634Z,93812.50
2022-08-05T23:28:07.110Z,93826.63
2022-08-05T23:30:39.589Z,93820.78
2022-08-05T23:33:07.529Z,93813.88
2022-08-05T23:35:49.008Z,93798.19
2022-08-05T23:38:16.265Z,93813.00
2022-08-05T23:40:49.981Z,93815.06
2022-08-05T23:43:24.772Z,93816.13
2022-08-05T23:45:52.500Z,93820.31
2022-08-05T23:48:19.721Z,93815.56
2022-08-05T23:50:46.524Z,93798.97
2022-08-05T23:53:22.252Z,93803.63
2022-08-05T23:55:49.912Z,93799.66
2022-08-05T23:58:31.641Z,93808.38
